createdAt,value
2022-08-12T00:00:53.906Z,17.70
2022-08-12T00:03:39.529Z,17.70
2022-08-12T00:06:25.774Z,17.60
2022-08-12T00:09:11.421Z,17.50
2022-08-12T00:11:56.813Z,17.50
2022-08-12T00:14:42.401Z,17.40
2022-08-12T00:17:27.684Z,17.40
2022-08-12T00:20:13.255Z,17.40
2022-08-12T00:22:59.750Z,17.30
2022-08-12T00:26:22.542Z,17.30
2022-08-12T00:29:09.349Z,17.30
2022-08-12T00:31:54.523Z,17.20
2022-08-12T00:34:39.825Z,17.20
2022-08-12T00:37:25.679Z,17.20
2022-08-12T00:40:14.102Z,17.10
2022-08-12T00:42:42.278Z,17.00
2022-08-12T00:45:10.194Z,17.00
2022-08-12T00:47:38.581Z,17.10
2022-08-12T00:50:06.945Z,17.10
2022-08-12T00:52:35.591Z,17.20
2022-08-12T00:55:04.378Z,17.10
2022-08-12T00:57:37.399Z,17.00
2022-08-12T01:00:14.414Z,16.90
2022-08-12T01:02:46.700Z,16.80
2022-08-12T01:05:39.844Z,16.90
2022-08-12T01:08:26.482Z,16.80
2022-08-12T01:11:13.739Z,16.80
2022-08-12T01:13:46.161Z,16.70
2022-08-12T01:16:16.762Z,16.70
2022-08-12T01:18:45.211Z,16.70
2022-08-12T01:21:27.009Z,16.80
2022-08-12T01:24:30.117Z,16.80
2022-08-12T01:26:59.785Z,16.80
2022-08-12T01:29:33.055Z,16.80
2022-08-12T01:32:05.479Z,16.80
2022-08-12T01:34:37.412Z,16.70
2022-08-12T01:37:07.678Z,16.60
2022-08-12T01:40:33.932Z,16.60
2022-08-12T01:42:32.282Z,16.60
2022-08-12T01:45:00.440Z,16.60
2022-08-12T01:47:54.770Z,16.60
2022-08-12T01:50:36.741Z,16.50
2022-08-12T01:53:06.268Z,16.50
2022-08-12T01:55:37.162Z,16.40
2022-08-12T01:58:21.812Z,16.40
2022-08-12T02:00:59.015Z,16.30
2022-08-12T02:04:22.154Z,16.30
2022-08-12T02:07:20.143Z,16.20
2022-08-12T02:10:11.320Z,16.20
2022-08-12T02:13:09.882Z,16.20
2022-08-12T02:15:51.720Z,16.30
2022-08-12T02:18:26.331Z,16.30
2022-08-12T02:21:07.289Z,16.40
2022-08-12T02:23:36.722Z,16.30
2022-08-12T02:26:09.307Z,16.40
2022-08-12T02:28:37.841Z,16.40
2022-08-12T02:31:07.019Z,16.40
2022-08-12T02:33:34.586Z,16.40
2022-08-12T02:36:02.551Z,16.40
2022-08-12T02:38:31.091Z,16.30
2022-08-12T02:41:04.451Z,16.20
2022-08-12T02:43:37.989Z,16.10
2022-08-12T02:46:14.757Z,16.00
2022-08-12T02:49:14.721Z,16.10
2022-08-12T02:51:45.093Z,16.10
2022-08-12T02:54:13.041Z,16.10
2022-08-12T02:56:41.601Z,16.10
2022-08-12T02:59:10.583Z,16.10
2022-08-12T03:01:47.821Z,16.00
2022-08-12T03:04:22.067Z,16.10
2022-08-12T03:07:04.707Z,16.10
2022-08-12T03:09:56.120Z,16.10
2022-08-12T03:12:24.667Z,16.00
2022-08-12T03:14:53.638Z,16.00
2022-08-12T03:17:30.237Z,15.90
2022-08-12T03:20:10.462Z,15.90
2022-08-12T03:22:42.336Z,15.80
2022-08-12T03:25:26.503Z,15.70
2022-08-12T03:27:56.365Z,15.70
2022-08-12T03:30:27.033Z,15.70
2022-08-12T03:32:55.491Z,15.80
2022-08-12T03:35:41.597Z,15.70
2022-08-12T03:38:12.232Z,15.70
2022-08-12T03:41:35.509Z,15.80
2022-08-12T03:44:49.392Z,16.00
2022-08-12T03:47:49.556Z,16.00
2022-08-12T03:50:36.005Z,16.00
2022-08-12T03:53:24.792Z,16.00
2022-08-12T03:56:10.654Z,16.00
2022-08-12T03:58:56.726Z,16.00
2022-08-12T04:01:25.440Z,16.00
2022-08-12T04:03:52.607Z,15.90
2022-08-12T04:06:34.917Z,15.90
2022-08-12T04:09:14.718Z,15.90
2022-08-12T04:12:02.495Z,16.00
2022-08-12T04:14:29.216Z,16.00
2022-08-12T04:16:57.254Z,16.00
2022-08-12T04:19:25.123Z,15.90
2022-08-12T04:22:02.082Z,15.90
2022-08-12T04:24:34.787Z,15.90
2022-08-12T04:27:05.423Z,15.80
2022-08-12T04:30:29.786Z,15.80
2022-08-12T04:32:19.226Z,15.80
2022-08-12T04:34:46.222Z,15.80
2022-08-12T04:37:13.574Z,15.70
2022-08-12T04:39:40.763Z,15.70
2022-08-12T04:42:07.784Z,15.70
2022-08-12T04:44:34.542Z,15.80
2022-08-12T04:47:01.654Z,15.70
2022-08-12T04:49:30.057Z,15.80
2022-08-12T04:51:58.906Z,15.80
2022-08-12T04:54:27.012Z,15.90
2022-08-12T04:57:03.197Z,15.80
2022-08-12T04:59:43.654Z,15.90
2022-08-12T05:02:17.220Z,16.00
2022-08-12T05:04:51.589Z,16.00
2022-08-12T05:07:19.306Z,16.20
2022-08-12T05:09:59.949Z,16.20
2022-08-12T05:12:37.491Z,16.20
2022-08-12T05:15:19.734Z,16.30
2022-08-12T05:17:53.213Z,16.30
2022-08-12T05:20:21.473Z,16.40
2022-08-12T05:22:49.987Z,16.50
2022-08-12T05:25:23.651Z,16.60
2022-08-12T05:27:58.162Z,16.60
2022-08-12T05:30:26.382Z,16.70
2022-08-12T05:32:55.493Z,16.90
2022-08-12T05:35:22.681Z,17.00
2022-08-12T05:38:16.596Z,17.10
2022-08-12T05:40:43.309Z,17.20
2022-08-12T05:43:10.025Z,17.40
2022-08-12T05:45:39.342Z,17.50
2022-08-12T05:48:09.591Z,17.70
2022-08-12T05:50:36.343Z,17.90
2022-08-12T05:53:03.952Z,18.20
2022-08-12T05:55:31.744Z,18.40
2022-08-12T05:57:59.102Z,18.70
2022-08-12T06:00:26.452Z,18.90
2022-08-12T06:03:02.579Z,19.40
2022-08-12T06:05:54.484Z,19.30
2022-08-12T06:08:24.450Z,19.50
2022-08-12T06:10:51.329Z,19.60
2022-08-12T06:13:28.023Z,19.50
2022-08-12T06:16:07.300Z,19.70
2022-08-12T06:18:34.392Z,19.80
2022-08-12T06:21:01.838Z,20.00
2022-08-12T06:23:29.597Z,20.00
2022-08-12T06:25:56.784Z,20.00
2022-08-12T06:28:24.034Z,20.10
2022-08-12T06:31:22.132Z,20.30
2022-08-12T06:34:00.577Z,20.60
2022-08-12T06:36:29.546Z,20.60
2022-08-12T06:38:57.123Z,20.70
2022-08-12T06:42:30.961Z,20.90
2022-08-12T06:44:29.303Z,20.90
2022-08-12T06:46:56.832Z,21.30
2022-08-12T06:49:25.433Z,21.60
2022-08-12T06:51:56.833Z,22.20
2022-08-12T06:54:31.162Z,22.80
2022-08-12T06:57:05.369Z,23.20
2022-08-12T06:59:46.728Z,23.90
2022-08-12T07:02:13.656Z,24.00
2022-08-12T07:04:40.603Z,23.70
2022-08-12T07:07:10.891Z,24.00
2022-08-12T07:10:05.058Z,24.20
2022-08-12T07:12:28.303Z,24.60
2022-08-12T07:14:57.313Z,25.10
2022-08-12T07:17:24.281Z,25.40
2022-08-12T07:19:52.014Z,25.50
2022-08-12T07:22:19.099Z,25.40
2022-08-12T07:25:05.913Z,25.60
2022-08-12T07:27:40.529Z,26.10
2022-08-12T07:30:08.130Z,26.10
2022-08-12T07:32:34.813Z,26.30
2022-08-12T07:35:02.203Z,26.50
2022-08-12T07:37:29.184Z,26.70
2022-08-12T07:40:00.529Z,26.80
2022-08-12T07:42:29.322Z,27.20
2022-08-12T07:44:58.550Z,27.00
2022-08-12T07:47:26.856Z,27.70
2022-08-12T07:50:05.081Z,28.50
2022-08-12T07:52:34.802Z,28.50
2022-08-12T07:55:02.478Z,28.70
2022-08-12T07:57:29.261Z,28.10
2022-08-12T07:59:56.252Z,28.00
2022-08-12T08:02:26.878Z,28.30
2022-08-12T08:04:57.310Z,28.20
2022-08-12T08:07:25.771Z,28.60
2022-08-12T08:09:58.464Z,28.60
2022-08-12T08:12:45.934Z,29.40
2022-08-12T08:15:14.875Z,29.80
2022-08-12T08:17:52.088Z,30.50
2022-08-12T08:20:31.632Z,30.40
2022-08-12T08:23:00.116Z,30.10
2022-08-12T08:25:35.810Z,29.80
2022-08-12T08:28:18.804Z,30.60
2022-08-12T08:30:47.779Z,30.50
2022-08-12T08:33:22.790Z,30.20
2022-08-12T08:36:06.671Z,30.70
2022-08-12T08:38:53.235Z,30.60
2022-08-12T08:42:17.225Z,30.90
2022-08-12T08:44:32.856Z,30.80
2022-08-12T08:47:01.139Z,31.10
2022-08-12T08:49:27.963Z,31.40
2022-08-12T08:51:54.717Z,31.50
2022-08-12T08:54:21.448Z,32.60
2022-08-12T08:56:50.011Z,32.40
2022-08-12T08:59:20.229Z,33.30
2022-08-12T09:01:47.814Z,32.70
2022-08-12T09:05:10.074Z,32.90
2022-08-12T09:10:02.584Z,33.00
2022-08-12T09:12:54.227Z,33.50
2022-08-12T09:15:21.794Z,33.10
2022-08-12T09:17:55.639Z,33.00
2022-08-12T09:20:32.346Z,32.50
2022-08-12T09:23:01.200Z,32.10
2022-08-12T09:25:35.540Z,31.80
2022-08-12T09:28:18.459Z,32.40
2022-08-12T09:30:53.907Z,32.90
2022-08-12T09:34:26.657Z,32.80
2022-08-12T09:36:31.283Z,32.50
2022-08-12T09:40:05.845Z,32.70
2022-08-12T09:42:54.248Z,32.70
2022-08-12T09:46:05.325Z,33.00
2022-08-12T09:48:10.168Z,32.80
2022-08-12T09:50:52.055Z,32.90
2022-08-12T09:53:36.409Z,32.70
2022-08-12T09:56:58.501Z,32.30
2022-08-12T09:59:01.939Z,32.40
2022-08-12T10:01:35.759Z,31.80
2022-08-12T10:04:19.662Z,31.50
2022-08-12T10:06:54.366Z,31.60
2022-08-12T10:09:23.191Z,32.40
2022-08-12T10:12:14.592Z,32.50
2022-08-12T10:14:57.945Z,32.20
2022-08-12T10:17:24.775Z,32.60
2022-08-12T10:19:52.911Z,32.20
2022-08-12T10:22:39.843Z,32.40
2022-08-12T10:26:10.051Z,32.80
2022-08-12T10:28:38.918Z,32.40
2022-08-12T10:31:06.562Z,32.70
2022-08-12T10:33:54.848Z,32.40
2022-08-12T10:36:40.463Z,32.50
2022-08-12T10:40:00.231Z,32.70
2022-08-12T10:42:46.040Z,32.60
2022-08-12T10:45:08.036Z,32.20
2022-08-12T10:48:07.117Z,32.40
2022-08-12T10:50:35.831Z,32.20
2022-08-12T10:53:15.620Z,31.40
2022-08-12T10:55:49.008Z,31.40
2022-08-12T10:58:28.219Z,31.50
2022-08-12T11:01:49.140Z,31.90
2022-08-12T11:04:31.294Z,32.50
2022-08-12T11:07:09.553Z,32.30
2022-08-12T11:09:54.339Z,32.40
2022-08-12T11:12:35.174Z,32.40
2022-08-12T11:14:56.700Z,32.90
2022-08-12T11:17:42.771Z,33.00
2022-08-12T11:20:15.179Z,32.40
2022-08-12T11:22:42.249Z,32.60
2022-08-12T11:25:24.886Z,32.70
2022-08-12T11:28:13.514Z,33.20
2022-08-12T11:30:40.831Z,32.50
2022-08-12T11:33:12.224Z,32.70
2022-08-12T11:35:52.319Z,32.50
2022-08-12T11:38:23.016Z,32.10
2022-08-12T11:40:49.791Z,32.40
2022-08-12T11:43:19.628Z,32.50
2022-08-12T11:45:47.692Z,32.20
2022-08-12T11:48:20.324Z,32.10
2022-08-12T11:50:54.514Z,32.40
2022-08-12T11:53:58.341Z,32.70
2022-08-12T11:56:08.416Z,32.90
2022-08-12T12:01:39.015Z,32.90
2022-08-12T12:02:01.141Z,32.70
2022-08-12T12:04:11.970Z,32.40
2022-08-12T12:06:38.738Z,32.10
2022-08-12T12:09:08.087Z,32.40
2022-08-12T12:11:49.025Z,32.90
2022-08-12T12:14:17.873Z,32.50
2022-08-12T12:16:48.286Z,32.20
2022-08-12T12:19:17.726Z,32.90
2022-08-12T12:21:47.289Z,32.70
2022-08-12T12:24:21.852Z,33.00
2022-08-12T12:27:00.690Z,33.10
2022-08-12T12:30:18.249Z,33.80
2022-08-12T12:32:19.323Z,33.30
2022-08-12T12:35:13.918Z,33.20
2022-08-12T12:38:04.927Z,33.10
2022-08-12T12:40:35.698Z,33.10
2022-08-12T12:43:07.848Z,33.50
2022-08-12T12:45:36.203Z,33.40
2022-08-12T12:48:06.456Z,33.30
2022-08-12T12:50:45.199Z,32.80
2022-08-12T12:54:07.152Z,32.70
2022-08-12T12:56:13.703Z,33.10
2022-08-12T12:58:40.420Z,33.50
2022-08-12T13:01:26.900Z,33.50
2022-08-12T13:04:01.747Z,33.00
2022-08-12T13:06:30.937Z,32.90
2022-08-12T13:09:03.653Z,33.30
2022-08-12T13:11:41.536Z,32.70
2022-08-12T13:14:28.174Z,32.90
2022-08-12T13:17:00.993Z,33.60
2022-08-12T13:19:37.506Z,33.60
2022-08-12T13:22:20.345Z,33.40
2022-08-12T13:24:55.747Z,33.40
2022-08-12T13:27:36.544Z,33.30
2022-08-12T13:30:15.382Z,33.10
2022-08-12T13:32:56.742Z,33.70
2022-08-12T13:35:33.510Z,33.40
2022-08-12T13:38:26.703Z,33.70
2022-08-12T13:41:03.400Z,33.60
2022-08-12T13:43:40.325Z,33.40
2022-08-12T13:46:11.814Z,33.40
2022-08-12T13:48:39.872Z,33.90
2022-08-12T13:51:12.833Z,33.60
2022-08-12T13:53:58.209Z,33.70
2022-08-12T13:56:29.927Z,33.90
2022-08-12T13:59:05.514Z,33.60
2022-08-12T14:01:35.707Z,33.00
2022-08-12T14:04:11.539Z,33.10
2022-08-12T14:06:40.100Z,32.60
2022-08-12T14:09:15.248Z,32.90
2022-08-12T14:11:51.275Z,33.30
2022-08-12T14:14:26.653Z,33.90
2022-08-12T14:16:53.712Z,33.70
2022-08-12T14:19:24.384Z,34.30
2022-08-12T14:22:01.033Z,33.70
2022-08-12T14:24:35.431Z,33.20
2022-08-12T14:27:03.724Z,33.30
2022-08-12T14:29:59.059Z,33.40
2022-08-12T14:32:23.844Z,33.80
2022-08-12T14:34:51.567Z,33.20
2022-08-12T14:37:57.661Z,33.50
2022-08-12T14:40:06.909Z,33.50
2022-08-12T14:42:33.629Z,33.40
2022-08-12T14:45:02.167Z,33.50
2022-08-12T14:47:35.519Z,33.80
2022-08-12T14:50:41.401Z,34.40
2022-08-12T14:58:31.832Z,33.40
2022-08-12T15:01:21.207Z,33.20
2022-08-12T15:03:57.905Z,33.50
2022-08-12T15:06:44.044Z,33.50
2022-08-12T15:09:15.980Z,33.90
2022-08-12T15:11:54.344Z,33.20
2022-08-12T15:14:22.252Z,33.00
2022-08-12T15:16:50.039Z,32.60
2022-08-12T15:20:12.468Z,32.80
2022-08-12T15:22:37.556Z,32.70
2022-08-12T15:24:50.846Z,32.60
2022-08-12T15:27:22.318Z,32.80
2022-08-12T15:29:58.712Z,33.00
2022-08-12T15:32:32.100Z,32.90
2022-08-12T15:35:02.957Z,32.60
2022-08-12T15:38:08.306Z,31.90
2022-08-12T15:40:30.225Z,32.50
2022-08-12T15:42:59.495Z,32.00
2022-08-12T15:45:32.122Z,31.70
2022-08-12T15:48:16.105Z,31.40
2022-08-12T15:50:45.618Z,31.50
2022-08-12T15:53:15.365Z,31.30
2022-08-12T15:55:46.227Z,31.60
2022-08-12T15:58:16.961Z,31.30
2022-08-12T16:00:43.990Z,31.60
2022-08-12T16:03:13.643Z,31.70
2022-08-12T16:06:11.844Z,31.70
2022-08-12T16:08:35.686Z,31.50
2022-08-12T16:11:07.398Z,31.00
2022-08-12T16:13:44.115Z,31.00
2022-08-12T16:16:22.822Z,31.60
2022-08-12T16:18:52.647Z,31.40
2022-08-12T16:21:50.297Z,31.60
2022-08-12T16:24:11.603Z,31.30
2022-08-12T16:26:40.717Z,31.10
2022-08-12T16:29:19.802Z,31.00
2022-08-12T16:31:52.448Z,31.00
2022-08-12T16:34:41.979Z,30.60
2022-08-12T16:37:13.405Z,30.40
2022-08-12T16:40:00.391Z,30.20
2022-08-12T16:42:30.733Z,29.90
2022-08-12T16:45:02.174Z,29.80
2022-08-12T16:47:31.271Z,29.60
2022-08-12T16:50:19.385Z,29.50
2022-08-12T16:52:50.180Z,29.60
2022-08-12T16:55:18.794Z,29.40
2022-08-12T16:57:48.558Z,29.40
2022-08-12T17:00:18.139Z,29.40
2022-08-12T17:02:57.177Z,29.30
2022-08-12T17:05:31.338Z,29.20
2022-08-12T17:10:52.781Z,29.20
2022-08-12T17:13:26.034Z,29.20
2022-08-12T17:16:05.265Z,29.10
2022-08-12T17:18:57.728Z,29.10
2022-08-12T17:21:41.178Z,29.00
2022-08-12T17:24:19.571Z,28.90
2022-08-12T17:28:00.492Z,28.90
2022-08-12T17:52:33.515Z,28.40
2022-08-12T17:55:44.667Z,28.20
2022-08-12T18:01:28.808Z,28.10
2022-08-12T18:04:20.308Z,28.10
2022-08-12T18:06:52.880Z,28.00
2022-08-12T18:09:21.812Z,27.90
2022-08-12T18:12:12.169Z,27.80
2022-08-12T18:14:41.290Z,27.80
2022-08-12T18:17:16.214Z,27.70
2022-08-12T18:20:05.284Z,27.60
2022-08-12T18:22:31.926Z,27.50
2022-08-12T18:25:05.106Z,27.40
2022-08-12T18:27:44.107Z,27.30
2022-08-12T18:30:13.259Z,27.20
2022-08-12T18:32:58.484Z,27.10
2022-08-12T18:35:29.914Z,27.10
2022-08-12T18:38:16.707Z,27.00
2022-08-12T18:41:04.472Z,27.10
2022-08-12T18:43:37.083Z,26.90
2022-08-12T18:46:30.003Z,26.80
2022-08-12T18:48:57.525Z,26.70
2022-08-12T18:51:55.236Z,26.50
2022-08-12T18:54:32.300Z,26.50
2022-08-12T18:57:00.927Z,26.40
2022-08-12T19:00:00.011Z,26.40
2022-08-12T19:02:22.174Z,26.10
2022-08-12T19:04:53.416Z,26.10
2022-08-12T19:07:29.713Z,25.90
2022-08-12T19:10:13.648Z,25.80
2022-08-12T19:13:00.385Z,25.80
2022-08-12T19:15:29.787Z,25.70
2022-08-12T19:18:02.380Z,25.60
2022-08-12T19:20:31.531Z,25.60
2022-08-12T19:23:07.301Z,25.40
2022-08-12T19:26:00.673Z,25.30
2022-08-12T19:28:29.556Z,25.30
2022-08-12T19:31:17.544Z,25.10
2022-08-12T19:34:06.472Z,25.00
2022-08-12T19:36:32.460Z,24.90
2022-08-12T19:39:01.787Z,24.70
2022-08-12T19:41:34.430Z,24.60
2022-08-12T19:44:18.575Z,24.50
2022-08-12T19:46:52.749Z,24.30
2022-08-12T19:49:20.428Z,24.20
2022-08-12T19:51:52.019Z,24.10
2022-08-12T19:54:23.118Z,24.10
2022-08-12T19:56:58.446Z,23.90
2022-08-12T19:59:43.138Z,23.90
2022-08-12T20:02:33.079Z,23.70
2022-08-12T20:05:25.492Z,23.60
2022-08-12T20:07:56.933Z,23.50
2022-08-12T20:10:35.155Z,23.40
2022-08-12T20:13:19.257Z,23.40
2022-08-12T20:15:59.656Z,23.30
2022-08-12T20:18:53.565Z,23.20
2022-08-12T20:21:16.126Z,23.20
2022-08-12T20:23:59.572Z,23.20
2022-08-12T20:26:28.121Z,23.20
2022-08-12T20:28:55.450Z,23.20
2022-08-12T20:31:22.159Z,23.20
2022-08-12T20:33:56.080Z,23.20
2022-08-12T20:36:41.501Z,23.10
2022-08-12T20:39:33.857Z,23.10
2022-08-12T20:42:02.306Z,23.00
2022-08-12T20:44:34.183Z,23.00
2022-08-12T20:47:18.524Z,22.90
2022-08-12T20:49:55.886Z,22.90
2022-08-12T20:52:30.070Z,22.80
2022-08-12T20:54:57.715Z,22.80
2022-08-12T20:57:24.769Z,22.70
2022-08-12T21:00:16.067Z,22.70
2022-08-12T21:02:47.054Z,22.60
2022-08-12T21:06:16.737Z,22.60
2022-08-12T21:08:43.733Z,22.50
2022-08-12T21:11:13.799Z,22.30
2022-08-12T21:13:42.283Z,22.20
2022-08-12T21:16:09.867Z,22.00
2022-08-12T21:18:37.704Z,22.00
2022-08-12T21:21:06.493Z,21.90
2022-08-12T21:23:37.037Z,21.90
2022-08-12T21:26:06.021Z,21.80
2022-08-12T21:28:56.796Z,21.70
2022-08-12T21:32:36.797Z,21.70
2022-08-12T21:34:29.142Z,21.50
2022-08-12T21:37:12.885Z,21.40
2022-08-12T21:39:51.963Z,21.50
2022-08-12T21:42:20.907Z,21.40
2022-08-12T21:45:45.777Z,21.40
2022-08-12T21:47:41.353Z,21.30
2022-08-12T21:50:08.935Z,21.30
2022-08-12T21:52:40.470Z,21.20
2022-08-12T21:55:17.817Z,21.20
2022-08-12T21:57:53.227Z,21.20
2022-08-12T22:00:32.895Z,21.30
2022-08-12T22:04:03.771Z,21.30
2022-08-12T22:06:31.093Z,21.30
2022-08-12T22:09:16.882Z,21.10
2022-08-12T22:11:56.934Z,21.30
2022-08-12T22:14:29.680Z,21.10
2022-08-12T22:16:57.869Z,21.10
2022-08-12T22:19:24.846Z,21.00
2022-08-12T22:21:55.849Z,21.10
2022-08-12T22:24:26.638Z,21.00
2022-08-12T22:27:18.057Z,21.00
2022-08-12T22:30:07.047Z,20.90
2022-08-12T22:32:34.256Z,21.00
2022-08-12T22:35:22.311Z,20.90
2022-08-12T22:37:53.685Z,20.90
2022-08-12T22:40:22.568Z,20.80
2022-08-12T22:43:09.229Z,20.80
2022-08-12T22:46:01.179Z,20.70
2022-08-12T22:48:27.965Z,20.60
2022-08-12T22:50:59.193Z,20.60
2022-08-12T22:53:36.217Z,20.70
2022-08-12T22:56:06.989Z,20.70
2022-08-12T22:58:40.555Z,20.60
2022-08-12T23:01:10.802Z,20.60
2022-08-12T23:03:49.156Z,20.50
2022-08-12T23:06:21.156Z,20.50
2022-08-12T23:08:48.313Z,20.40
2022-08-12T23:11:16.035Z,20.40
2022-08-12T23:13:55.132Z,20.30
2022-08-12T23:16:30.936Z,20.30
2022-08-12T23:19:09.952Z,20.30
2022-08-12T23:22:05.265Z,20.10
2022-08-12T23:24:55.696Z,20.00
2022-08-12T23:27:51.545Z,20.10
2022-08-12T23:30:25.173Z,20.00
2022-08-12T23:33:00.603Z,20.00
2022-08-12T23:35:45.570Z,20.00
2022-08-12T23:38:30.810Z,20.00
2022-08-12T23:41:01.338Z,20.00
2022-08-12T23:43:38.949Z,20.00
2022-08-12T23:46:09.111Z,19.90
2022-08-12T23:48:37.573Z,19.80
2022-08-12T23:51:22.726Z,19.70
2022-08-12T23:53:54.699Z,19.70
2022-08-12T23:56:23.678Z,19.70
2022-08-12T23:58:52.786Z,19.60
